createdAt,value
2017-08-02T00:01:03.716Z,16.40
2017-08-02T00:03:32.802Z,16.30
2017-08-02T00:06:01.091Z,16.40
2017-08-02T00:08:30.844Z,16.30
2017-08-02T00:10:59.085Z,16.30
2017-08-02T00:13:28.191Z,16.30
2017-08-02T00:15:56.307Z,16.30
2017-08-02T00:18:24.476Z,16.30
2017-08-02T00:20:52.808Z,16.30
2017-08-02T00:23:21.814Z,16.20
2017-08-02T00:25:50.988Z,16.20
2017-08-02T00:28:19.263Z,16.30
2017-08-02T00:30:47.403Z,16.30
2017-08-02T00:33:15.634Z,16.30
2017-08-02T00:35:44.822Z,16.30
2017-08-02T00:38:13.768Z,16.30
2017-08-02T00:40:42.761Z,16.30
2017-08-02T00:43:10.959Z,16.30
2017-08-02T00:45:40.077Z,16.30
2017-08-02T00:48:08.196Z,16.20
2017-08-02T00:50:48.199Z,16.20
2017-08-02T00:53:16.327Z,16.20
2017-08-02T00:55:59.027Z,16.20
2017-08-02T00:58:27.267Z,16.20
2017-08-02T01:00:56.238Z,16.20
2017-08-02T01:03:24.404Z,16.20
2017-08-02T01:05:52.508Z,16.20
2017-08-02T01:11:26.745Z,16.30
2017-08-02T01:14:12.417Z,16.40
2017-08-02T01:16:40.549Z,16.40
2017-08-02T01:19:11.040Z,16.40
2017-08-02T01:21:39.156Z,16.40
2017-08-02T01:24:07.268Z,16.40
2017-08-02T01:26:35.401Z,16.40
2017-08-02T01:29:07.773Z,16.40
2017-08-02T01:31:35.912Z,16.40
2017-08-02T01:34:04.027Z,16.30
2017-08-02T01:36:32.220Z,16.30
2017-08-02T01:39:00.445Z,16.20
2017-08-02T01:41:30.686Z,16.00
2017-08-02T01:43:58.780Z,15.90
2017-08-02T01:46:26.933Z,15.90
2017-08-02T01:48:56.906Z,15.80
2017-08-02T01:51:25.130Z,15.70
2017-08-02T01:53:53.358Z,15.70
2017-08-02T01:56:22.419Z,15.60
2017-08-02T01:58:51.387Z,15.60
2017-08-02T02:01:20.386Z,15.60
2017-08-02T02:03:48.600Z,15.60
2017-08-02T02:06:16.767Z,15.60
2017-08-02T02:08:46.015Z,15.50
2017-08-02T02:11:14.135Z,15.50
2017-08-02T02:13:42.346Z,15.50
2017-08-02T02:16:10.506Z,15.50
2017-08-02T02:18:38.629Z,15.50
2017-08-02T02:21:06.754Z,15.50
2017-08-02T02:23:34.897Z,15.50
2017-08-02T02:26:07.432Z,15.50
2017-08-02T02:28:35.540Z,15.40
2017-08-02T02:31:03.666Z,15.50
2017-08-02T02:33:31.777Z,15.40
2017-08-02T02:36:00.226Z,15.40
2017-08-02T02:38:28.367Z,15.30
2017-08-02T02:40:57.288Z,15.30
2017-08-02T02:43:25.398Z,15.20
2017-08-02T02:45:53.505Z,15.30
2017-08-02T02:48:21.644Z,15.30
2017-08-02T02:50:49.798Z,15.30
2017-08-02T02:53:17.942Z,15.40
2017-08-02T02:56:04.773Z,15.40
2017-08-02T02:58:32.963Z,15.50
2017-08-02T03:01:01.858Z,15.60
2017-08-02T03:06:23.373Z,15.70
2017-08-02T03:08:51.493Z,15.70
2017-08-02T03:11:19.618Z,15.70
2017-08-02T03:13:47.739Z,15.70
2017-08-02T03:16:15.909Z,15.80
2017-08-02T03:18:44.149Z,15.80
2017-08-02T03:21:12.306Z,15.80
2017-08-02T03:23:40.427Z,15.80
2017-08-02T03:26:20.569Z,15.70
2017-08-02T03:28:48.734Z,15.60
2017-08-02T03:31:16.883Z,15.60
2017-08-02T03:33:45.894Z,15.60
2017-08-02T03:36:14.018Z,15.60
2017-08-02T03:38:42.111Z,15.70
2017-08-02T03:41:10.218Z,15.70
2017-08-02T03:43:38.438Z,15.80
2017-08-02T03:46:08.591Z,15.80
2017-08-02T03:48:41.627Z,15.90
2017-08-02T03:51:09.834Z,15.90
2017-08-02T03:53:38.794Z,15.90
2017-08-02T03:56:08.885Z,15.90
2017-08-02T03:58:36.997Z,15.90
2017-08-02T04:01:05.141Z,15.90
2017-08-02T04:03:34.061Z,15.90
2017-08-02T04:06:02.174Z,15.90
2017-08-02T04:08:30.303Z,15.90
2017-08-02T04:10:58.705Z,15.90
2017-08-02T04:13:26.824Z,16.00
2017-08-02T04:15:55.034Z,16.00
2017-08-02T04:18:39.733Z,16.00
2017-08-02T04:21:08.884Z,16.00
2017-08-02T04:23:37.004Z,16.00
2017-08-02T04:26:29.711Z,16.00
2017-08-02T04:28:57.952Z,16.00
2017-08-02T04:31:26.979Z,16.10
2017-08-02T04:34:02.000Z,16.10
2017-08-02T04:36:32.300Z,16.10
2017-08-02T04:39:02.577Z,16.10
2017-08-02T04:41:32.409Z,16.20
2017-08-02T04:44:00.680Z,16.20
2017-08-02T04:46:35.156Z,16.20
2017-08-02T04:49:10.295Z,16.20
2017-08-02T04:51:38.506Z,16.30
2017-08-02T04:54:06.994Z,16.40
2017-08-02T04:56:40.505Z,16.40
2017-08-02T04:59:08.747Z,16.50
2017-08-02T05:01:43.871Z,16.60
2017-08-02T05:04:12.958Z,16.60
2017-08-02T05:06:41.835Z,16.70
2017-08-02T05:09:10.522Z,16.80
2017-08-02T05:11:49.739Z,16.90
2017-08-02T05:14:17.854Z,17.00
2017-08-02T05:16:47.685Z,17.10
2017-08-02T05:19:16.966Z,17.10
2017-08-02T05:21:45.958Z,17.20
2017-08-02T05:24:14.125Z,17.20
2017-08-02T05:26:42.343Z,17.20
2017-08-02T05:29:11.556Z,17.30
2017-08-02T05:31:39.715Z,17.40
2017-08-02T05:34:08.030Z,17.50
2017-08-02T05:36:36.263Z,17.50
2017-08-02T05:39:04.506Z,17.60
2017-08-02T05:41:33.274Z,17.60
2017-08-02T05:44:03.152Z,17.60
2017-08-02T05:46:39.506Z,17.70
2017-08-02T05:49:10.285Z,17.80
2017-08-02T05:54:11.927Z,18.00
2017-08-02T05:56:40.123Z,18.00
2017-08-02T05:59:08.480Z,18.10
2017-08-02T06:01:37.013Z,18.20
2017-08-02T06:04:05.379Z,18.30
2017-08-02T06:06:33.553Z,18.40
2017-08-02T06:09:01.709Z,18.70
2017-08-02T06:11:30.056Z,18.90
2017-08-02T06:13:58.248Z,19.10
2017-08-02T06:16:27.260Z,19.30
2017-08-02T06:18:55.434Z,19.40
2017-08-02T06:21:23.886Z,19.50
2017-08-02T06:23:52.156Z,19.50
2017-08-02T06:26:20.354Z,19.50
2017-08-02T06:28:49.261Z,19.30
2017-08-02T06:31:17.553Z,19.10
2017-08-02T06:33:46.930Z,19.00
2017-08-02T06:36:15.378Z,19.00
2017-08-02T06:38:43.484Z,19.00
2017-08-02T06:41:11.650Z,19.10
2017-08-02T06:43:39.895Z,19.20
2017-08-02T06:46:08.238Z,19.20
2017-08-02T06:48:37.232Z,19.50
2017-08-02T06:51:05.803Z,19.40
2017-08-02T06:53:34.003Z,19.50
2017-08-02T06:56:02.159Z,19.70
2017-08-02T06:58:31.014Z,19.80
2017-08-02T07:00:59.249Z,19.90
2017-08-02T07:03:28.105Z,19.80
2017-08-02T07:05:56.363Z,19.80
2017-08-02T07:08:24.604Z,19.60
2017-08-02T07:10:52.898Z,19.50
2017-08-02T07:13:21.098Z,19.40
2017-08-02T07:15:49.860Z,19.30
2017-08-02T07:18:18.833Z,19.20
2017-08-02T07:20:47.931Z,19.20
2017-08-02T07:23:18.017Z,19.20
2017-08-02T07:25:46.831Z,19.20
2017-08-02T07:28:15.101Z,19.30
2017-08-02T07:30:44.335Z,19.30
2017-08-02T07:33:14.444Z,19.40
2017-08-02T07:35:44.167Z,19.50
2017-08-02T07:38:12.400Z,19.70
2017-08-02T07:40:40.617Z,20.00
2017-08-02T07:43:10.492Z,20.20
2017-08-02T07:45:38.679Z,20.40
2017-08-02T07:48:10.735Z,20.60
2017-08-02T07:50:38.910Z,20.70
2017-08-02T07:53:13.199Z,20.90
2017-08-02T07:55:44.043Z,21.10
2017-08-02T07:58:12.156Z,21.40
2017-08-02T08:00:43.100Z,21.60
2017-08-02T08:03:11.276Z,21.70
2017-08-02T08:05:39.489Z,21.80
2017-08-02T08:08:07.882Z,21.90
2017-08-02T08:10:36.197Z,22.10
2017-08-02T08:13:05.256Z,22.30
2017-08-02T08:15:33.574Z,22.30
2017-08-02T08:18:01.759Z,22.30
2017-08-02T08:20:30.828Z,22.20
2017-08-02T08:22:59.084Z,22.10
2017-08-02T08:25:27.304Z,22.00
2017-08-02T08:27:55.778Z,22.00
2017-08-02T08:30:24.208Z,21.90
2017-08-02T08:32:52.372Z,21.90
2017-08-02T08:35:20.683Z,21.90
2017-08-02T08:37:48.901Z,22.00
2017-08-02T08:40:17.150Z,22.00
2017-08-02T08:42:45.336Z,22.00
2017-08-02T08:45:13.483Z,22.00
2017-08-02T08:47:41.587Z,22.10
2017-08-02T08:50:09.795Z,22.20
2017-08-02T08:52:37.973Z,22.20
2017-08-02T08:55:06.122Z,22.30
2017-08-02T08:57:34.767Z,22.40
2017-08-02T09:00:03.836Z,22.40
2017-08-02T09:02:31.980Z,22.40
2017-08-02T09:05:00.083Z,22.50
2017-08-02T09:07:28.235Z,22.60
2017-08-02T09:09:56.396Z,23.00
2017-08-02T09:12:24.527Z,23.10
2017-08-02T09:14:54.091Z,23.30
2017-08-02T09:17:22.310Z,23.30
2017-08-02T09:19:53.135Z,23.60
2017-08-02T09:22:21.720Z,23.80
2017-08-02T09:24:49.997Z,24.10
2017-08-02T09:27:18.165Z,24.20
2017-08-02T09:29:47.109Z,24.30
2017-08-02T09:32:16.152Z,24.50
2017-08-02T09:34:44.313Z,24.90
2017-08-02T09:37:12.441Z,24.90
2017-08-02T09:39:41.347Z,25.10
2017-08-02T09:42:09.550Z,25.10
2017-08-02T09:44:38.478Z,25.30
2017-08-02T09:47:06.742Z,25.50
2017-08-02T09:49:35.048Z,25.70
2017-08-02T09:52:03.344Z,25.60
2017-08-02T09:54:32.954Z,25.50
2017-08-02T09:57:01.193Z,25.40
2017-08-02T09:59:29.444Z,25.50
2017-08-02T10:01:57.644Z,25.50
2017-08-02T10:04:26.646Z,25.50
2017-08-02T10:06:57.543Z,25.70
2017-08-02T10:09:27.806Z,25.70
2017-08-02T10:12:03.957Z,25.40
2017-08-02T10:14:33.359Z,25.10
2017-08-02T10:17:01.882Z,24.90
2017-08-02T10:19:30.703Z,24.90
2017-08-02T10:21:59.005Z,24.90
2017-08-02T10:24:27.275Z,25.00
2017-08-02T10:26:57.468Z,25.20
2017-08-02T10:29:25.686Z,25.50
2017-08-02T10:31:54.036Z,25.80
2017-08-02T10:34:22.291Z,25.80
2017-08-02T10:36:50.585Z,25.60
2017-08-02T10:39:19.380Z,25.40
2017-08-02T10:41:47.933Z,25.30
2017-08-02T10:44:16.807Z,25.30
2017-08-02T10:46:46.773Z,25.40
2017-08-02T10:49:16.675Z,25.40
2017-08-02T10:51:44.846Z,25.40
2017-08-02T10:54:14.158Z,25.10
2017-08-02T10:56:43.344Z,25.10
2017-08-02T10:59:11.584Z,25.20
2017-08-02T11:01:39.723Z,25.50
2017-08-02T11:04:09.600Z,25.70
2017-08-02T11:06:40.351Z,25.90
2017-08-02T11:09:09.945Z,26.10
2017-08-02T11:11:38.203Z,26.30
2017-08-02T11:14:08.032Z,26.20
2017-08-02T11:16:36.656Z,26.20
2017-08-02T11:19:07.150Z,26.30
2017-08-02T11:21:36.143Z,26.30
2017-08-02T11:24:06.289Z,26.60
2017-08-02T11:26:36.304Z,26.60
2017-08-02T11:29:05.334Z,26.60
2017-08-02T11:31:33.592Z,26.60
2017-08-02T11:34:02.541Z,26.50
2017-08-02T11:36:32.101Z,26.50
2017-08-02T11:39:01.347Z,26.50
2017-08-02T11:41:30.553Z,26.50
2017-08-02T11:43:59.531Z,26.70
2017-08-02T11:46:28.577Z,26.90
2017-08-02T11:48:56.876Z,26.70
2017-08-02T11:51:25.297Z,26.80
2017-08-02T11:53:57.232Z,26.90
2017-08-02T11:56:26.374Z,26.90
2017-08-02T11:58:55.693Z,26.80
2017-08-02T12:01:25.163Z,26.90
2017-08-02T12:03:53.832Z,27.20
2017-08-02T12:06:23.079Z,27.40
2017-08-02T12:08:51.695Z,27.40
2017-08-02T12:11:19.854Z,27.50
2017-08-02T12:13:51.066Z,27.50
2017-08-02T12:16:20.639Z,27.50
2017-08-02T12:18:52.713Z,27.50
2017-08-02T12:21:20.926Z,27.40
2017-08-02T12:23:50.882Z,27.50
2017-08-02T12:26:19.970Z,27.50
2017-08-02T12:28:51.869Z,27.70
2017-08-02T12:31:20.120Z,27.60
2017-08-02T12:33:50.255Z,27.50
2017-08-02T12:36:19.373Z,27.60
2017-08-02T12:38:47.809Z,27.60
2017-08-02T12:41:16.183Z,27.40
2017-08-02T12:43:46.009Z,27.10
2017-08-02T12:46:14.252Z,26.80
2017-08-02T12:48:42.680Z,26.50
2017-08-02T12:51:11.595Z,26.30
2017-08-02T12:53:40.159Z,26.40
2017-08-02T12:56:11.738Z,26.40
2017-08-02T12:58:39.996Z,26.50
2017-08-02T13:01:10.649Z,26.80
2017-08-02T13:03:39.073Z,26.90
2017-08-02T13:06:22.519Z,26.90
2017-08-02T13:08:53.232Z,27.10
2017-08-02T13:11:23.309Z,27.30
2017-08-02T13:13:52.563Z,27.60
2017-08-02T13:16:21.353Z,27.80
2017-08-02T13:22:06.847Z,28.30
2017-08-02T13:24:35.845Z,27.90
2017-08-02T13:27:04.185Z,27.90
2017-08-02T13:29:32.518Z,27.50
2017-08-02T13:32:04.110Z,27.30
2017-08-02T13:34:33.835Z,27.00
2017-08-02T13:37:02.251Z,26.70
2017-08-02T13:39:30.620Z,26.30
2017-08-02T13:41:59.462Z,26.00
2017-08-02T13:44:27.732Z,25.80
2017-08-02T13:46:56.043Z,25.60
2017-08-02T13:49:24.398Z,25.40
2017-08-02T13:51:52.608Z,25.20
2017-08-02T13:54:20.781Z,24.80
2017-08-02T13:56:48.968Z,24.10
2017-08-02T13:59:18.051Z,23.30
2017-08-02T14:01:46.354Z,22.20
2017-08-02T14:04:16.495Z,21.60
2017-08-02T14:06:46.610Z,21.20
2017-08-02T14:09:14.868Z,21.20
2017-08-02T14:11:43.054Z,21.30
2017-08-02T14:14:11.247Z,21.40
2017-08-02T14:16:39.496Z,21.50
2017-08-02T14:19:07.783Z,21.60
2017-08-02T14:21:35.914Z,21.70
2017-08-02T14:26:44.963Z,22.20
2017-08-02T14:29:13.910Z,22.50
2017-08-02T14:31:42.082Z,22.50
2017-08-02T14:34:10.335Z,22.70
2017-08-02T14:36:38.445Z,23.10
2017-08-02T14:39:06.604Z,23.40
2017-08-02T14:41:37.006Z,23.60
2017-08-02T14:44:07.323Z,24.20
2017-08-02T14:46:35.448Z,24.20
2017-08-02T14:49:03.637Z,24.40
2017-08-02T14:51:31.830Z,24.40
2017-08-02T14:54:00.267Z,24.40
2017-08-02T14:56:28.540Z,24.60
2017-08-02T14:58:56.637Z,24.90
2017-08-02T15:01:26.293Z,25.10
2017-08-02T15:03:55.013Z,25.10
2017-08-02T15:06:23.401Z,25.30
2017-08-02T15:08:51.562Z,25.30
2017-08-02T15:11:20.791Z,25.10
2017-08-02T15:13:49.316Z,25.10
2017-08-02T15:16:18.500Z,25.10
2017-08-02T15:18:46.692Z,25.20
2017-08-02T15:21:18.254Z,25.10
2017-08-02T15:23:49.463Z,25.10
2017-08-02T15:26:18.955Z,25.00
2017-08-02T15:28:47.399Z,25.00
2017-08-02T15:31:16.500Z,24.60
2017-08-02T15:33:49.829Z,24.60
2017-08-02T15:36:20.956Z,24.60
2017-08-02T15:38:49.628Z,24.50
2017-08-02T15:41:18.626Z,24.50
2017-08-02T15:43:49.782Z,24.40
2017-08-02T15:46:23.591Z,24.70
2017-08-02T15:48:51.822Z,25.20
2017-08-02T15:51:20.103Z,25.70
2017-08-02T15:53:51.233Z,25.80
2017-08-02T15:56:23.392Z,25.60
2017-08-02T15:58:52.815Z,25.20
2017-08-02T16:06:53.733Z,25.10
2017-08-02T16:09:27.270Z,24.80
2017-08-02T16:12:03.623Z,24.70
2017-08-02T16:14:36.594Z,24.60
2017-08-02T16:17:16.057Z,24.60
2017-08-02T16:19:49.930Z,24.40
2017-08-02T16:22:33.147Z,24.30
2017-08-02T16:25:13.713Z,24.10
2017-08-02T16:27:44.306Z,24.00
2017-08-02T16:30:16.192Z,23.90
2017-08-02T16:32:46.816Z,23.80
2017-08-02T16:38:17.454Z,23.80
2017-08-02T16:40:46.758Z,23.90
2017-08-02T16:43:16.439Z,24.00
2017-08-02T16:45:45.987Z,24.10
2017-08-02T16:48:14.375Z,24.30
2017-08-02T16:50:43.450Z,24.30
2017-08-02T16:53:12.445Z,24.30
2017-08-02T16:55:40.711Z,24.20
2017-08-02T16:58:09.427Z,24.20
2017-08-02T17:00:41.054Z,24.10
2017-08-02T17:03:17.821Z,24.00
2017-08-02T17:05:47.329Z,24.00
2017-08-02T17:08:16.219Z,23.90
2017-08-02T17:10:44.973Z,23.80
2017-08-02T17:13:13.625Z,23.80
2017-08-02T17:15:41.858Z,23.70
2017-08-02T17:18:20.171Z,23.60
2017-08-02T17:20:49.238Z,23.30
2017-08-02T17:23:19.700Z,23.20
2017-08-02T17:26:03.465Z,23.10
2017-08-02T17:31:42.515Z,23.00
2017-08-02T17:37:20.855Z,23.10
2017-08-02T17:39:57.121Z,23.10
2017-08-02T17:42:42.888Z,23.10
2017-08-02T17:54:09.033Z,23.10
2017-08-02T17:56:39.455Z,23.10
2017-08-02T17:59:10.414Z,22.90
2017-08-02T18:10:52.121Z,22.70
2017-08-02T18:13:31.456Z,22.50
2017-08-02T18:18:51.633Z,22.50
2017-08-02T18:24:07.851Z,22.40
2017-08-02T18:29:46.793Z,22.20
2017-08-02T18:35:09.629Z,21.90
2017-08-02T18:37:37.849Z,21.80
2017-08-02T18:40:20.403Z,21.70
2017-08-02T18:43:13.120Z,21.60
2017-08-02T18:45:46.587Z,21.50
2017-08-02T18:48:31.673Z,21.50
2017-08-02T18:53:51.189Z,21.40
2017-08-02T18:56:20.888Z,21.30
2017-08-02T18:58:49.750Z,21.30
2017-08-02T19:01:23.775Z,21.30
2017-08-02T19:04:02.417Z,21.30
2017-08-02T19:06:43.110Z,21.30
2017-08-02T19:09:18.182Z,21.20
2017-08-02T19:11:53.754Z,21.20
2017-08-02T19:14:35.154Z,21.10
2017-08-02T19:17:08.892Z,21.10
2017-08-02T19:19:40.487Z,21.10
2017-08-02T19:22:20.641Z,21.10
2017-08-02T19:37:26.123Z,21.20
2017-08-02T19:40:04.231Z,21.20
2017-08-02T19:42:41.324Z,21.10
2017-08-02T19:45:16.674Z,21.10
2017-08-02T19:50:59.048Z,21.20
2017-08-02T19:53:57.790Z,21.20
2017-08-02T20:14:43.562Z,21.20
2017-08-02T20:17:12.094Z,21.20
2017-08-02T20:19:40.258Z,21.20
2017-08-02T20:22:08.384Z,21.20
2017-08-02T20:24:37.794Z,21.20
2017-08-02T20:27:06.834Z,21.20
2017-08-02T20:32:47.790Z,21.10
2017-08-02T20:35:30.294Z,21.10
2017-08-02T20:38:16.707Z,21.10
2017-08-02T20:40:46.746Z,21.10
2017-08-02T20:43:17.382Z,21.10
2017-08-02T20:46:10.909Z,21.00
2017-08-02T20:48:41.776Z,21.00
2017-08-02T20:51:11.605Z,21.00
2017-08-02T20:53:40.465Z,20.90
2017-08-02T20:56:09.276Z,20.90
2017-08-02T20:58:39.261Z,20.90
2017-08-02T21:01:10.417Z,20.80
2017-08-02T21:03:54.368Z,20.80
2017-08-02T21:06:31.801Z,20.80
2017-08-02T21:08:59.961Z,20.80
2017-08-02T21:11:50.887Z,20.70
2017-08-02T21:14:19.612Z,20.70
2017-08-02T21:16:49.211Z,20.70
2017-08-02T21:19:18.066Z,20.60
2017-08-02T21:21:46.637Z,20.60
2017-08-02T21:24:18.621Z,20.60
2017-08-02T21:26:48.409Z,20.60
2017-08-02T21:29:16.573Z,20.50
2017-08-02T21:31:45.161Z,20.50
2017-08-02T21:34:17.771Z,20.50
2017-08-02T21:36:46.683Z,20.40
2017-08-02T21:39:14.876Z,20.40
2017-08-02T21:41:43.060Z,20.40
2017-08-02T21:44:11.519Z,20.40
2017-08-02T21:46:46.289Z,20.40
2017-08-02T21:49:15.442Z,20.40
2017-08-02T21:51:45.387Z,20.40
2017-08-02T21:54:23.393Z,20.30
2017-08-02T21:57:03.838Z,20.30
2017-08-02T21:59:35.023Z,20.30
2017-08-02T22:02:04.967Z,20.30
2017-08-02T22:04:34.069Z,20.30
2017-08-02T22:07:02.209Z,20.30
2017-08-02T22:09:31.123Z,20.30
2017-08-02T22:11:59.340Z,20.30
2017-08-02T22:14:28.764Z,20.30
2017-08-02T22:16:59.303Z,20.30
2017-08-02T22:19:29.041Z,20.30
2017-08-02T22:22:04.376Z,20.30
2017-08-02T22:24:34.672Z,20.30
2017-08-02T22:27:08.782Z,20.20
2017-08-02T22:29:39.304Z,20.20
2017-08-02T22:32:12.135Z,20.20
2017-08-02T22:34:40.927Z,20.20
2017-08-02T22:37:11.592Z,20.20
2017-08-02T22:39:43.004Z,20.20
2017-08-02T22:42:11.294Z,20.10
2017-08-02T22:44:41.410Z,20.10
2017-08-02T22:47:14.609Z,20.10
2017-08-02T22:52:27.042Z,20.10
2017-08-02T22:54:56.003Z,20.10
2017-08-02T22:57:25.632Z,20.00
2017-08-02T22:59:56.740Z,20.00
2017-08-02T23:02:25.610Z,19.90
2017-08-02T23:04:55.853Z,19.80
2017-08-02T23:07:24.827Z,19.80
2017-08-02T23:09:54.113Z,19.70
2017-08-02T23:12:24.137Z,19.70
2017-08-02T23:14:53.170Z,19.60
2017-08-02T23:17:22.175Z,19.60
2017-08-02T23:19:53.377Z,19.50
2017-08-02T23:22:21.474Z,19.50
2017-08-02T23:24:49.663Z,19.40
2017-08-02T23:27:26.823Z,19.40
2017-08-02T23:29:54.905Z,19.30
2017-08-02T23:32:23.899Z,19.30
2017-08-02T23:35:01.390Z,19.20
2017-08-02T23:37:30.698Z,19.10
2017-08-02T23:40:11.810Z,19.00
2017-08-02T23:42:39.892Z,18.90
2017-08-02T23:45:09.729Z,18.80
2017-08-02T23:47:38.758Z,18.70
2017-08-02T23:50:09.177Z,18.60
2017-08-02T23:52:37.384Z,18.60
2017-08-02T23:55:09.113Z,18.70
2017-08-02T23:57:37.440Z,18.60
